^^
Datos históricos de la estación: Murcia-Puente Tocinos
Diario Informe para Noviembre 12, 2019 Unidades:  Ingés    Métrico   Ambas
Diario Semanal Mensual Anual
  Máxima: Mínima: Promedio:
Temperatura: 65.7 °F 53.2 °F 59.2 °F
Punto de rocio: 42.4 °F 32.9 °F 36 °F
Humedad: 55.3% 31% 43%
Velocidad viento: 16.8mph 2mph 8.1mph
Racha viento: 32.2mph - -
Viento- - Oeste
Presión: 29.9 in 29.8 in -
Precipitación: 0 in    
 
 
Tabla de datos para Noviembre 12, 2019
Hora Temperatura Punto de rocio Presión Viento Velocidad viento Racha viento Humedad Intensidad lluvia(por hora) Nubes
00:04 58.6 °F 42.4 °F 29.9 in ONO 9.8 mph 18.4 mph 55% 0 in
00:09 58.6 °F 42.3 °F 29.9 in Oeste 10 mph 20.7 mph 54.3% 0 in
00:14 58.6 °F 42.1 °F 29.9 in Oeste 11.2 mph 21 mph 54% 0 in
00:19 58.6 °F 42.1 °F 29.9 in Oeste 11.8 mph 19 mph 54% 0 in
00:24 58.6 °F 42.1 °F 29.9 in Oeste 11.4 mph 18 mph 54% 0 in
00:29 58.6 °F 41.9 °F 29.9 in Oeste 11.2 mph 16 mph 54% 0 in
00:34 58.5 °F 42.1 °F 29.9 in Oeste 9.5 mph 15 mph 54.6% 0 in
00:39 58.3 °F 42.3 °F 29.9 in ONO 8.5 mph 13.8 mph 55% 0 in
00:44 58.1 °F 41.9 °F 29.9 in ONO 7.5 mph 14 mph 55% 0 in
00:49 57.7 °F 41.9 °F 29.9 in Oeste 6.9 mph 15.2 mph 55.3% 0 in
00:54 57.7 °F 41.7 °F 29.9 in Oeste 7.6 mph 15 mph 55% 0 in
00:59 57.7 °F 41.7 °F 29.9 in Oeste 8.1 mph 17.5 mph 55% 0 in
01:04 57.7 °F 41.7 °F 29.9 in Oeste 9.4 mph 21.9 mph 55% 0 in
01:09 57.9 °F 41.7 °F 29.9 in Oeste 10.2 mph 22 mph 55% 0 in
01:14 57.9 °F 41.7 °F 29.9 in Oeste 11 mph 23 mph 55% 0 in
01:19 57.7 °F 41.7 °F 29.9 in Oeste 11.4 mph 16 mph 55% 0 in
01:22 57.7 °F 41.7 °F 29.9 in OSO 9.7 mph 14 mph 55% 0 in
01:29 57.7 °F 41.7 °F 29.9 in SO 6.9 mph 11.5 mph 55% 0 in
01:34 57.7 °F 41.7 °F 29.9 in OSO 5.5 mph 12 mph 55% 0 in
01:39 57.7 °F 41.7 °F 29.9 in SSO 4.7 mph 7.6 mph 55% 0 in
01:44 57.7 °F 41.7 °F 29.9 in SSO 4.3 mph 8.1 mph 55% 0 in
01:49 57.6 °F 41.5 °F 29.9 in SO 4 mph 6 mph 55% 0 in
01:54 57.6 °F 41.5 °F 29.9 in SO 3.3 mph 5.2 mph 55% 0 in
01:59 57.6 °F 41.5 °F 29.9 in NNO 2.9 mph 5 mph 55% 0 in
02:04 57.4 °F 41.4 °F 29.9 in Sur 2.5 mph 6.9 mph 55% 0 in
02:09 57.2 °F 41.2 °F 29.9 in SSO 2.4 mph 7 mph 55% 0 in
02:14 57 °F 41 °F 29.9 in SO 3.4 mph 10.2 mph 55% 0 in
02:19 57 °F 40.8 °F 29.9 in Oeste 4 mph 10.4 mph 54.8% 0 in
02:24 57 °F 40.6 °F 29.9 in OSO 4.5 mph 10 mph 54.1% 0 in
02:29 56.8 °F 40.5 °F 29.9 in Oeste 4.7 mph 10 mph 54% 0 in
02:34 56.8 °F 40.3 °F 29.9 in Oeste 4.5 mph 10.7 mph 54% 0 in
02:39 56.7 °F 40.1 °F 29.9 in Oeste 4.3 mph 11 mph 54% 0 in
02:44 56.5 °F 39.9 °F 29.9 in Oeste 5 mph 10.4 mph 53.8% 0 in
02:49 56.3 °F 39.4 °F 29.9 in Oeste 5.4 mph 10.7 mph 53% 0 in
02:54 56.1 °F 39.4 °F 29.9 in Oeste 5.3 mph 11 mph 53.3% 0 in
02:59 56.1 °F 39.2 °F 29.9 in Oeste 5.2 mph 10.4 mph 53% 0 in
03:04 56.1 °F 39 °F 29.9 in OSO 5.3 mph 11.8 mph 52.6% 0 in
03:09 56.1 °F 38.7 °F 29.9 in Oeste 5.4 mph 15 mph 52% 0 in
03:14 55.9 °F 38.1 °F 29.9 in Oeste 5 mph 17.3 mph 51% 0 in
03:19 56.1 °F 37.8 °F 29.9 in Oeste 4.7 mph 17.3 mph 50% 0 in
03:24 56.3 °F 37.9 °F 29.9 in Oeste 7.8 mph 18.5 mph 50% 0 in
03:29 56.1 °F 37.4 °F 29.9 in OSO 9.7 mph 19 mph 49.3% 0 in
03:34 56.1 °F 37.4 °F 29.9 in OSO 8 mph 13 mph 49.3% 0 in
03:39 55.9 °F 37.4 °F 29.9 in OSO 6.9 mph 13 mph 49.8% 0 in
03:44 55.8 °F 37 °F 29.9 in Oeste 6 mph 18.5 mph 49.4% 0 in
03:49 55.8 °F 36.9 °F 29.9 in OSO 5.4 mph 19 mph 49% 0 in
03:54 55.8 °F 36.7 °F 29.9 in Oeste 6.6 mph 20.7 mph 48.7% 0 in
03:59 55.8 °F 36.3 °F 29.9 in OSO 7.4 mph 21 mph 48% 0 in
04:04 55.8 °F 36.3 °F 29.9 in Oeste 7.1 mph 12 mph 48% 0 in
04:09 55.6 °F 36.5 °F 29.9 in OSO 6.9 mph 13.8 mph 48.4% 0 in
04:14 55.6 °F 36.7 °F 29.9 in SSE 5.3 mph 14 mph 49% 0 in
04:19 55.4 °F 36.5 °F 29.9 in SSO 4.3 mph 11.5 mph 49% 0 in
04:24 55.4 °F 36.5 °F 29.9 in Sur 4.5 mph 12 mph 49% 0 in
04:29 55.2 °F 36.3 °F 29.9 in SO 4.7 mph 11.2 mph 49% 0 in
04:34 55.2 °F 36.3 °F 29.9 in SO 4.7 mph 17.5 mph 49% 0 in
04:39 55.2 °F 36.1 °F 29.9 in SO 4.7 mph 17 mph 48.5% 0 in
04:44 55.2 °F 36 °F 29.9 in SO 6.1 mph 18.4 mph 48% 0 in
04:49 55.2 °F 36 °F 29.9 in OSO 6.9 mph 18 mph 48% 0 in
04:54 55 °F 35.8 °F 29.9 in Oeste 6 mph 15.2 mph 48% 0 in
04:59 54.9 °F 36 °F 29.9 in Oeste 5.4 mph 21.3 mph 48.9% 0 in
05:04 54.7 °F 36 °F 29.9 in Oeste 8.3 mph 23 mph 49% 0 in
05:09 54.7 °F 36 °F 29.9 in Oeste 9.7 mph 23 mph 49% 0 in
05:14 54.5 °F 35.8 °F 29.9 in Oeste 12.2 mph 24.2 mph 49% 0 in
05:19 54.3 °F 35.6 °F 29.9 in Oeste 13.7 mph 25.3 mph 49% 0 in
05:24 54.1 °F 35.4 °F 29.9 in Oeste 13 mph 25 mph 49% 0 in
05:29 54 °F 35.8 °F 29.9 in Oeste 12.5 mph 20.7 mph 49.9% 0 in
05:34 54 °F 35.8 °F 29.9 in Oeste 12.1 mph 21 mph 50% 0 in
05:39 54 °F 35.8 °F 29.9 in Oeste 11.8 mph 19 mph 50% 0 in
05:44 54 °F 35.6 °F 29.9 in Oeste 10.8 mph 19 mph 50% 0 in
05:49 53.8 °F 35.6 °F 29.9 in Oeste 10.2 mph 18.4 mph 49.8% 0 in
05:54 53.8 °F 35.1 °F 29.9 in Oeste 10.1 mph 19.6 mph 49% 0 in
05:59 53.8 °F 35.1 °F 29.9 in OSO 10 mph 20 mph 49% 0 in
06:04 54 °F 35.2 °F 29.9 in OSO 9.8 mph 18 mph 49% 0 in
06:09 54 °F 35.2 °F 29.9 in OSO 9.7 mph 17 mph 49% 0 in
06:14 54 °F 34.7 °F 29.9 in OSO 8.9 mph 13 mph 48% 0 in
06:19 54 °F 34.9 °F 29.9 in OSO 8.5 mph 13 mph 48.4% 0 in
06:24 53.6 °F 34.9 °F 29.9 in OSO 7 mph 13 mph 49% 0 in
06:29 53.2 °F 34.7 °F 29.9 in Oeste 6.2 mph 15.2 mph 49% 0 in
06:34 53.2 °F 34.5 °F 29.9 in Oeste 6.6 mph 17.3 mph 49% 0 in
06:39 53.4 °F 34.7 °F 29.9 in Oeste 6.9 mph 17 mph 49% 0 in
06:44 53.4 °F 34.7 °F 29.9 in Oeste 6.9 mph 14 mph 48.9% 0 in
06:49 53.4 °F 34.2 °F 29.9 in Oeste 6.9 mph 18.4 mph 48.1% 0 in
06:54 53.4 °F 34.2 °F 29.9 in ONO 7.9 mph 18 mph 48% 0 in
06:59 53.4 °F 34.2 °F 29.9 in ONO 8.5 mph 16 mph 48% 0 in
07:04 53.4 °F 34.2 °F 29.9 in ONO 7.1 mph 15 mph 48% 0 in
07:09 53.4 °F 34.2 °F 29.9 in Oeste 6.4 mph 12 mph 48% 0 in
07:14 53.4 °F 34.2 °F 29.9 in Oeste 5.3 mph 10 mph 48% 0 in
07:19 53.4 °F 34 °F 29.9 in Oeste 4.7 mph 13 mph 47.4% 0 in
07:24 53.6 °F 33.8 °F 29.9 in ONO 5.8 mph 13.8 mph 47% 0 in
07:29 53.8 °F 34 °F 29.9 in ONO 6.4 mph 15.2 mph 47% 0 in
07:34 53.8 °F 33.6 °F 29.9 in ONO 7.2 mph 15 mph 46.2% 0 in
07:39 54 °F 33.6 °F 29.9 in ONO 7.6 mph 15 mph 46% 0 in
07:44 54 °F 33.6 °F 29.9 in ONO 7.9 mph 21.9 mph 46% 0 in
07:49 54 °F 33.6 °F 29.9 in ONO 8.1 mph 22 mph 46% 0 in
07:54 54.1 °F 33.8 °F 29.9 in ONO 8.8 mph 18.4 mph 46% 0 in
07:59 54.1 °F 33.6 °F 29.9 in Oeste 9.2 mph 19.6 mph 45.7% 0 in
08:04 54.1 °F 33.3 °F 29.9 in ONO 10.6 mph 23 mph 45% 0 in
08:09 54.3 °F 33.4 °F 29.9 in ONO 11.4 mph 23 mph 45% 0 in
08:14 54.5 °F 33.1 °F 29.9 in ONO 11.7 mph 21.9 mph 44.2% 0 in
08:19 54.7 °F 33.1 °F 29.9 in ONO 11.8 mph 22 mph 44% 0 in
08:24 54.7 °F 33.3 °F 29.9 in ONO 10.6 mph 21.9 mph 44% 0 in
08:29 54.9 °F 33.3 °F 29.9 in Oeste 10 mph 22 mph 44% 0 in
08:34 54.9 °F 32.9 °F 29.9 in ONO 11.1 mph 22.3 mph 43.1% 0 in
08:39 55 °F 32.9 °F 29.9 in ONO 11.8 mph 22 mph 43% 0 in
08:44 55 °F 32.9 °F 29.9 in ONO 11.1 mph 20 mph 43% 0 in
08:49 55 °F 32.9 °F 29.9 in ONO 10.7 mph 23.5 mph 43% 0 in
08:54 55.2 °F 33.1 °F 29.9 in ONO 11.7 mph 23 mph 43% 0 in
08:59 55.2 °F 33.1 °F 29.9 in ONO 12.3 mph 18.4 mph 43% 0 in
09:04 55.4 °F 33.3 °F 29.9 in ONO 11.6 mph 21.5 mph 43% 0 in
09:09 55.6 °F 33.4 °F 29.9 in ONO 11.2 mph 24.2 mph 43% 0 in
09:14 55.8 °F 33.4 °F 29.9 in ONO 12.7 mph 24 mph 43% 0 in
09:19 55.8 °F 33.6 °F 29.9 in Oeste 13.5 mph 21 mph 43% 0 in
09:24 55.9 °F 33.6 °F 29.9 in ONO 12.2 mph 19 mph 42.8% 0 in
09:29 55.9 °F 33.8 °F 29.9 in Oeste 11.4 mph 18 mph 43% 0 in
09:34 56.1 °F 34 °F 29.9 in Oeste 10.1 mph 15 mph 43% 0 in
09:39 56.3 °F 34.2 °F 29.9 in Oeste 9.2 mph 20.4 mph 43% 0 in
09:44 56.5 °F 33.8 °F 29.9 in Oeste 8.5 mph 21 mph 42.4% 0 in
09:49 56.5 °F 33.6 °F 29.9 in ONO 8.1 mph 21 mph 42% 0 in
09:54 56.7 °F 33.8 °F 29.9 in Oeste 8.3 mph 17.3 mph 42% 0 in
09:59 56.8 °F 34 °F 29.9 in Oeste 8.5 mph 17.5 mph 42% 0 in
10:04 56.8 °F 33.8 °F 29.9 in Oeste 8.5 mph 17 mph 41.8% 0 in
10:09 57 °F 33.8 °F 29.9 in Oeste 8.5 mph 19 mph 41.6% 0 in
10:14 57.2 °F 33.8 °F 29.9 in Oeste 9.3 mph 19.2 mph 41.1% 0 in
10:19 57.6 °F 34 °F 29.9 in Oeste 9.7 mph 20 mph 41% 0 in
10:24 57.6 °F 34 °F 29.9 in Oeste 8.7 mph 14 mph 41% 0 in
10:29 57.7 °F 34.2 °F 29.9 in Oeste 8.1 mph 20.7 mph 40.7% 0 in
10:34 57.9 °F 34 °F 29.9 in ONO 8.3 mph 21 mph 40.4% 0 in
10:39 58.3 °F 33.6 °F 29.9 in Oeste 8.5 mph 20.8 mph 39.4% 0 in
10:44 58.3 °F 33.4 °F 29.9 in Oeste 9.4 mph 21 mph 39.1% 0 in
10:49 58.5 °F 34 °F 29.9 in ONO 10 mph 20 mph 39.6% 0 in
10:54 58.6 °F 33.8 °F 29.9 in ONO 10 mph 18.5 mph 39% 0 in
10:59 58.8 °F 34 °F 29.9 in ONO 10 mph 21.3 mph 39% 0 in
11:04 59 °F 34.2 °F 29.9 in ONO 10.4 mph 21 mph 39% 0 in
11:09 59.4 °F 34.3 °F 29.9 in ONO 10.7 mph 21 mph 39% 0 in
11:14 59.4 °F 34.9 °F 29.9 in Oeste 10.3 mph 18 mph 39.6% 0 in
11:19 59.7 °F 34.7 °F 29.9 in ONO 10 mph 15 mph 39% 0 in
11:24 59.9 °F 35.1 °F 29.9 in ONO 8.8 mph 19 mph 39.3% 0 in
11:29 60.1 °F 35.1 °F 29.9 in ONO 8.1 mph 19 mph 39% 0 in
11:34 60.3 °F 35.1 °F 29.9 in Oeste 9.1 mph 16.1 mph 39% 0 in
11:39 60.4 °F 34.9 °F 29.9 in ONO 9.7 mph 18.5 mph 38.4% 0 in
11:44 60.4 °F 35.1 °F 29.9 in ONO 9.9 mph 19 mph 38.3% 0 in
11:49 60.8 °F 35.1 °F 29.9 in ONO 10 mph 18 mph 38% 0 in
11:54 61.2 °F 35.2 °F 29.9 in Oeste 10.1 mph 17 mph 37.9% 0 in
11:59 61.2 °F 34.9 °F 29.9 in ONO 10.2 mph 21.3 mph 37.3% 0 in
12:04 61.3 °F 34.7 °F 29.9 in Oeste 10.9 mph 21 mph 36.9% 0 in
12:09 61.5 °F 34.2 °F 29.9 in ONO 11.2 mph 21.9 mph 35.9% 0 in
12:14 61.5 °F 34.3 °F 29.9 in ONO 12.4 mph 22 mph 36% 0 in
12:19 62.1 °F 34.7 °F 29.9 in ONO 13 mph 18.4 mph 36% 0 in
12:24 62.4 °F 34.5 °F 29.9 in NO 10.2 mph 17.3 mph 35.3% 0 in
12:29 62.6 °F 34.5 °F 29.9 in ONO 8.5 mph 21.9 mph 35% 0 in
12:34 62.8 °F 34.5 °F 29.9 in ONO 10.2 mph 22 mph 35% 0 in
12:39 62.8 °F 34.7 °F 29.9 in ONO 11.2 mph 25.6 mph 35% 0 in
12:44 62.8 °F 34.5 °F 29.9 in NO 12.8 mph 26 mph 34.8% 0 in
12:49 63.1 °F 34.9 °F 29.9 in ONO 13.7 mph 25.3 mph 34.8% 0 in
12:54 63.1 °F 34.3 °F 29.9 in ONO 14.2 mph 28.8 mph 34% 0 in
12:59 63.1 °F 34.3 °F 29.9 in ONO 14.5 mph 29 mph 34% 0 in
13:04 63.3 °F 34.3 °F 29.9 in ONO 15.5 mph 27.6 mph 34% 0 in
13:09 63.3 °F 34.3 °F 29.9 in ONO 15.9 mph 31.7 mph 34% 0 in
13:14 63.3 °F 34 °F 29.9 in ONO 16.5 mph 32.2 mph 33.4% 0 in
13:19 63.5 °F 34.5 °F 29.9 in ONO 16.8 mph 32 mph 34% 0 in
13:24 63.7 °F 34.9 °F 29.9 in NO 14 mph 22 mph 34% 0 in
13:29 63.9 °F 34.3 °F 29.9 in ONO 12.5 mph 25.3 mph 33.2% 0 in
13:34 63.9 °F 34.2 °F 29.9 in ONO 12.4 mph 25 mph 33% 0 in
13:39 64 °F 34.3 °F 29.9 in NO 12.3 mph 24.2 mph 33% 0 in
13:44 64.2 °F 34.7 °F 29.8 in ONO 13 mph 24.2 mph 33.3% 0 in
13:49 64.2 °F 34.7 °F 29.8 in ONO 13.5 mph 24.2 mph 33.4% 0 in
13:54 64.2 °F 34.5 °F 29.8 in ONO 14.3 mph 23 mph 33% 0 in
13:59 64.4 °F 35.1 °F 29.8 in ONO 14.7 mph 22 mph 33.7% 0 in
14:04 64.6 °F 34.9 °F 29.8 in ONO 13.9 mph 20.8 mph 33.1% 0 in
14:09 64.8 °F 34.9 °F 29.8 in ONO 13.5 mph 23 mph 33% 0 in
14:14 64.8 °F 35.1 °F 29.8 in ONO 13.2 mph 23 mph 33% 0 in
14:19 64.9 °F 35.4 °F 29.8 in ONO 13 mph 21 mph 33.3% 0 in
14:24 64.9 °F 35.1 °F 29.8 in Oeste 11.6 mph 20 mph 32.8% 0 in
14:29 65.1 °F 34.9 °F 29.8 in Oeste 10.7 mph 20.7 mph 32.6% 0 in
14:34 65.3 °F 35.4 °F 29.8 in ONO 11.1 mph 21 mph 33% 0 in
14:39 65.3 °F 35.1 °F 29.8 in ONO 11.4 mph 20.8 mph 32.6% 0 in
14:44 65.1 °F 35.2 °F 29.8 in Oeste 12 mph 21.5 mph 32.9% 0 in
14:49 65.3 °F 34.9 °F 29.8 in ONO 12.3 mph 23 mph 32.4% 0 in
14:54 65.5 °F 35.6 °F 29.8 in ONO 11.6 mph 23 mph 33% 0 in
14:59 65.3 °F 35.4 °F 29.8 in Oeste 11.2 mph 23 mph 33% 0 in
15:04 65.5 °F 36 °F 29.8 in ONO 11.3 mph 23 mph 33.6% 0 in
15:09 65.7 °F 36 °F 29.8 in ONO 11.4 mph 20.8 mph 33.3% 0 in
15:14 65.7 °F 35.8 °F 29.8 in Oeste 11.7 mph 23 mph 33.1% 0 in
15:19 65.5 °F 35.6 °F 29.8 in Oeste 11.8 mph 23 mph 33% 0 in
15:24 65.5 °F 36.3 °F 29.8 in ONO 11.6 mph 22 mph 33.9% 0 in
15:29 65.7 °F 36.1 °F 29.8 in ONO 11.4 mph 20.7 mph 33.5% 0 in
15:34 65.5 °F 36 °F 29.8 in ONO 10.6 mph 23 mph 33.4% 0 in
15:39 65.5 °F 35.6 °F 29.8 in Oeste 10.2 mph 23 mph 33% 0 in
15:44 65.3 °F 35.4 °F 29.8 in Oeste 11.5 mph 21 mph 33% 0 in
15:49 65.7 °F 35.8 °F 29.8 in Oeste 12.3 mph 16 mph 33% 0 in
15:54 65.7 °F 34.9 °F 29.8 in ONO 9.6 mph 25.6 mph 31.8% 0 in
15:59 65.5 °F 34 °F 29.8 in ONO 8.1 mph 26 mph 31% 0 in
16:04 65.5 °F 34.7 °F 29.8 in Oeste 12.2 mph 28.6 mph 31.9% 0 in
16:09 65.5 °F 34.7 °F 29.8 in ONO 14.5 mph 29 mph 32% 0 in
16:14 65.3 °F 35.1 °F 29.8 in ONO 13.2 mph 24 mph 32.4% 0 in
16:19 65.3 °F 34.9 °F 29.8 in ONO 12.3 mph 24.6 mph 32.4% 0 in
16:24 65.1 °F 35.2 °F 29.8 in ONO 13.2 mph 25 mph 33% 0 in
16:29 65.3 °F 35.4 °F 29.8 in ONO 13.7 mph 20 mph 33% 0 in
16:34 65.3 °F 35.4 °F 29.8 in ONO 11.2 mph 18.4 mph 33% 0 in
16:39 65.1 °F 35.4 °F 29.8 in ONO 9.7 mph 18.4 mph 33% 0 in
16:44 65.1 °F 35.2 °F 29.8 in ONO 9.9 mph 19.6 mph 33% 0 in
16:49 65.1 °F 35.2 °F 29.8 in ONO 10 mph 20 mph 33% 0 in
16:54 65.1 °F 35.8 °F 29.8 in ONO 9.5 mph 16.1 mph 33.6% 0 in
16:59 64.9 °F 36 °F 29.8 in ONO 9.2 mph 17.3 mph 34% 0 in
17:04 64.9 °F 36 °F 29.8 in ONO 9.5 mph 17.3 mph 34% 0 in
17:09 64.9 °F 36 °F 29.8 in ONO 9.7 mph 17.8 mph 34% 0 in
17:14 64.9 °F 36 °F 29.8 in ONO 10 mph 18 mph 34% 0 in
17:19 64.9 °F 36 °F 29.8 in Oeste 10.2 mph 16 mph 34% 0 in
17:24 64.9 °F 36 °F 29.8 in Oeste 8.6 mph 16.1 mph 34% 0 in
17:29 64.9 °F 35.8 °F 29.8 in Oeste 7.6 mph 16 mph 34% 0 in
17:34 64.8 °F 35.8 °F 29.8 in Oeste 8.6 mph 15 mph 34% 0 in
17:39 64.8 °F 35.8 °F 29.8 in Oeste 9.2 mph 15 mph 34.2% 0 in
17:44 64.6 °F 36.3 °F 29.8 in Oeste 8.9 mph 15 mph 35% 0 in
17:49 64.2 °F 36.1 °F 29.8 in Oeste 8.7 mph 18.5 mph 35% 0 in
17:54 64 °F 36 °F 29.8 in Oeste 8.6 mph 20.8 mph 35% 0 in
17:59 64 °F 35.8 °F 29.8 in Oeste 8.5 mph 21 mph 35% 0 in
18:04 63.9 °F 35.8 °F 29.8 in Oeste 8.9 mph 19.2 mph 35% 0 in
18:09 63.9 °F 35.6 °F 29.8 in Oeste 9.2 mph 20 mph 35% 0 in
18:14 63.7 °F 35.4 °F 29.8 in OSO 9.5 mph 19 mph 35% 0 in
18:19 63.5 °F 35.6 °F 29.8 in OSO 9.7 mph 20.7 mph 35.4% 0 in
18:24 63.3 °F 36 °F 29.8 in OSO 7.9 mph 21 mph 36% 0 in
18:29 63.3 °F 35.8 °F 29.8 in OSO 6.9 mph 16 mph 36% 0 in
18:34 63.1 °F 35.8 °F 29.8 in OSO 6.3 mph 13 mph 36% 0 in
18:39 63 °F 35.6 °F 29.8 in SO 5.9 mph 13 mph 36% 0 in
18:44 63 °F 36.1 °F 29.8 in SO 4.9 mph 10.4 mph 36.7% 0 in
18:49 63 °F 36.1 °F 29.8 in SO 4.3 mph 10 mph 36.9% 0 in
18:54 63 °F 36.3 °F 29.8 in SO 4.5 mph 10.2 mph 37% 0 in
18:59 62.8 °F 36.1 °F 29.8 in OSO 4.7 mph 10.4 mph 37% 0 in
19:04 62.8 °F 36.1 °F 29.8 in OSO 5.2 mph 9.7 mph 37% 0 in
19:09 62.6 °F 36 °F 29.8 in OSO 5.4 mph 12.5 mph 37% 0 in
19:14 62.4 °F 35.8 °F 29.8 in Oeste 5.7 mph 13 mph 37% 0 in
19:19 62.2 °F 36.3 °F 29.8 in OSO 5.9 mph 15 mph 37.9% 0 in
19:24 62.1 °F 36.1 °F 29.8 in OSO 6.8 mph 15 mph 38% 0 in
19:29 62.1 °F 36.1 °F 29.8 in Oeste 7.4 mph 15 mph 38% 0 in
19:34 61.9 °F 36 °F 29.8 in Oeste 6.8 mph 13 mph 38% 0 in
19:39 61.5 °F 36 °F 29.8 in Oeste 6.4 mph 12 mph 38.3% 0 in
19:44 61.3 °F 36.3 °F 29.8 in ONO 5.7 mph 10 mph 39% 0 in
19:49 61.3 °F 36.1 °F 29.8 in NNO 5.2 mph 7 mph 39% 0 in
19:54 61 °F 36.5 °F 29.8 in NE 3.4 mph 5 mph 40% 0 in
19:59 60.6 °F 36.3 °F 29.8 in Este 2.4 mph 5 mph 40.2% 0 in
20:04 60.4 °F 36.5 °F 29.8 in ESE 2.4 mph 4.6 mph 41% 0 in
20:09 60.1 °F 36.7 °F 29.8 in SE 2.4 mph 5.2 mph 41.6% 0 in
20:14 59.7 °F 36.5 °F 29.8 in ESE 2.9 mph 6.2 mph 41.7% 0 in
20:19 59.9 °F 36.1 °F 29.8 in ESE 3.1 mph 6 mph 41.2% 0 in
20:24 60.1 °F 36.5 °F 29.9 in SE 3.4 mph 6 mph 41.2% 0 in
20:29 59.9 °F 36.5 °F 29.9 in SE 3.6 mph 5 mph 41.7% 0 in
20:34 59.7 °F 36.5 °F 29.9 in SE 2.6 mph 5.2 mph 42% 0 in
20:39 59.4 °F 36.3 °F 29.9 in SE 2 mph 5.2 mph 42% 0 in
20:44 59.4 °F 36.3 °F 29.9 in SE 2.2 mph 5 mph 42.2% 0 in
20:49 59.2 °F 36.1 °F 29.9 in SO 2.4 mph 4.6 mph 42.2% 0 in
20:54 59.4 °F 36.1 °F 29.9 in OSO 2.4 mph 6.9 mph 42% 0 in
20:59 59.5 °F 36.3 °F 29.9 in Oeste 2.4 mph 7 mph 42% 0 in
21:04 59.5 °F 36.3 °F 29.9 in SO 2.9 mph 6 mph 41.9% 0 in
21:09 59.5 °F 36.5 °F 29.9 in OSO 3.1 mph 5 mph 42% 0 in
21:14 59.5 °F 36.3 °F 29.9 in OSO 3 mph 5.8 mph 42% 0 in
21:19 59.4 °F 36.1 °F 29.9 in Oeste 2.9 mph 8.1 mph 42% 0 in
21:24 59.7 °F 36.3 °F 29.9 in OSO 4 mph 17.3 mph 41.7% 0 in
21:29 60.1 °F 36.3 °F 29.9 in Oeste 4.7 mph 17 mph 41% 0 in
21:34 59.9 °F 36.1 °F 29.9 in SO 5.8 mph 10 mph 41% 0 in
21:39 59.5 °F 36.3 °F 29.9 in OSO 6.4 mph 7 mph 41.8% 0 in
21:44 59.4 °F 36.1 °F 29.9 in OSO 4.6 mph 7.4 mph 42% 0 in
21:49 59.2 °F 36.1 °F 29.9 in Sur 3.6 mph 7 mph 42% 0 in
21:54 59 °F 36.5 °F 29.9 in SSE 3.9 mph 8.1 mph 43% 0 in
21:59 58.3 °F 36 °F 29.9 in SSE 4 mph 8.1 mph 43.1% 0 in
22:04 57.7 °F 36 °F 29.9 in SSE 4.8 mph 8 mph 44% 0 in
22:09 57.6 °F 35.8 °F 29.9 in Sur 5.2 mph 7 mph 44% 0 in
22:14 57.6 °F 35.8 °F 29.9 in Sur 4.2 mph 7 mph 44% 0 in
22:19 57.6 °F 35.8 °F 29.9 in SSO 3.6 mph 5 mph 44% 0 in
22:24 57.7 °F 36 °F 29.9 in SSO 3.2 mph 5.2 mph 44% 0 in
22:29 57.9 °F 35.8 °F 29.9 in SSO 2.9 mph 5.8 mph 43.4% 0 in
22:34 57.9 °F 35.6 °F 29.9 in SSO 3.4 mph 6 mph 43% 0 in
22:39 57.9 °F 35.6 °F 29.9 in SSO 3.6 mph 5 mph 43% 0 in
22:44 57.9 °F 35.4 °F 29.9 in SSO 3.2 mph 5.8 mph 43% 0 in
22:49 57.9 °F 35.4 °F 29.9 in SSO 2.9 mph 6.2 mph 43% 0 in
22:54 57.7 °F 35.4 °F 29.9 in SO 3.6 mph 6.4 mph 43% 0 in
22:59 57.6 °F 35.6 °F 29.8 in SO 4 mph 7 mph 43.5% 0 in
23:04 57.6 °F 35.6 °F 29.8 in OSO 4 mph 6 mph 43.8% 0 in
23:09 57.6 °F 35.8 °F 29.8 in OSO 4 mph 6 mph 43.9% 0 in
23:14 57.4 °F 35.6 °F 29.8 in SO 3.3 mph 5 mph 44% 0 in
23:19 57 °F 35.8 °F 29.8 in SO 2.9 mph 5 mph 44.7% 0 in
23:24 57 °F 35.6 °F 29.8 in SSO 2.9 mph 5.8 mph 44.4% 0 in
23:29 57 °F 35.2 °F 29.8 in SSO 2.9 mph 6.2 mph 44% 0 in
23:34 56.8 °F 35.1 °F 29.8 in SSO 3 mph 6.2 mph 44% 0 in
23:39 56.7 °F 35.4 °F 29.8 in SSO 3.1 mph 6.4 mph 44.6% 0 in
23:44 56.7 °F 35.4 °F 29.8 in SSO 3.4 mph 7 mph 45% 0 in
23:49 56.7 °F 35.4 °F 29.8 in SSO 3.6 mph 6.2 mph 45% 0 in
23:54 56.7 °F 35.4 °F 29.8 in SSO 3.6 mph 6 mph 45% 0 in
23:59 56.7 °F 35.4 °F 29.8 in SSO 3.6 mph 6 mph 45% 0 in
Murcia-Puente Tocinos, Espa?a
Compliments of Weather Underground - 3.25 mb

La estación de MeteoMurcia.com, publica sus datos en los siguientes proyectos:

Weather Underground PWS IMURCIAP2 Meteoclimatic www.awekas.at

W3Counter
Web Analytics